sensor_id;sensor_type;location;lat;lon;timestamp;P1;durP1;ratioP1;P2;durP2;ratioP2
20794;SDS011;28087;-33.874;151.240;2022-09-27T00:00:44;16.77;;;9.60;;
20794;SDS011;28087;-33.874;151.240;2022-09-27T00:03:23;15.48;;;9.25;;
20794;SDS011;28087;-33.874;151.240;2022-09-27T00:06:02;14.27;;;8.27;;
20794;SDS011;28087;-33.874;151.240;2022-09-27T00:08:41;15.75;;;8.77;;
20794;SDS011;28087;-33.874;151.240;2022-09-27T00:11:19;15.30;;;10.07;;
20794;SDS011;28087;-33.874;151.240;2022-09-27T00:13:59;18.25;;;8.20;;
20794;SDS011;28087;-33.874;151.240;2022-09-27T00:16:38;15.27;;;8.07;;
20794;SDS011;28087;-33.874;151.240;2022-09-27T00:19:14;13.48;;;7.03;;
20794;SDS011;28087;-33.874;151.240;2022-09-27T00:21:51;10.35;;;5.95;;
20794;SDS011;28087;-33.874;151.240;2022-09-27T00:24:26;12.93;;;8.27;;
20794;SDS011;28087;-33.874;151.240;2022-09-27T00:27:03;16.35;;;8.93;;
20794;SDS011;28087;-33.874;151.240;2022-09-27T00:29:38;13.23;;;7.90;;
20794;SDS011;28087;-33.874;151.240;2022-09-27T00:32:15;15.43;;;8.27;;
20794;SDS011;28087;-33.874;151.240;2022-09-27T00:34:51;15.57;;;8.05;;
20794;SDS011;28087;-33.874;151.240;2022-09-27T00:37:27;8.93;;;5.25;;
20794;SDS011;28087;-33.874;151.240;2022-09-27T00:40:06;10.63;;;5.10;;
20794;SDS011;28087;-33.874;151.240;2022-09-27T00:42:47;9.63;;;4.45;;
20794;SDS011;28087;-33.874;151.240;2022-09-27T00:45:22;10.68;;;4.22;;
20794;SDS011;28087;-33.874;151.240;2022-09-27T00:47:58;14.25;;;8.15;;
20794;SDS011;28087;-33.874;151.240;2022-09-27T00:50:34;13.50;;;7.40;;
20794;SDS011;28087;-33.874;151.240;2022-09-27T00:53:14;12.88;;;6.93;;
20794;SDS011;28087;-33.874;151.240;2022-09-27T00:55:52;10.80;;;6.55;;
20794;SDS011;28087;-33.874;151.240;2022-09-27T00:58:31;9.02;;;5.47;;
20794;SDS011;28087;-33.874;151.240;2022-09-27T01:01:13;9.32;;;5.53;;
20794;SDS011;28087;-33.874;151.240;2022-09-27T01:03:51;7.68;;;4.32;;
20794;SDS011;28087;-33.874;151.240;2022-09-27T01:06:32;5.85;;;3.63;;
20794;SDS011;28087;-33.874;151.240;2022-09-27T01:09:27;4.85;;;2.72;;
20794;SDS011;28087;-33.874;151.240;2022-09-27T01:12:22;5.20;;;2.50;;
20794;SDS011;28087;-33.874;151.240;2022-09-27T01:15:07;6.30;;;2.70;;
20794;SDS011;28087;-33.874;151.240;2022-09-27T01:17:51;6.85;;;2.70;;
20794;SDS011;28087;-33.874;151.240;2022-09-27T01:20:45;7.82;;;4.05;;
20794;SDS011;28087;-33.874;151.240;2022-09-27T01:26:30;9.57;;;4.60;;
20794;SDS011;28087;-33.874;151.240;2022-09-27T01:29:10;11.45;;;4.85;;
20794;SDS011;28087;-33.874;151.240;2022-09-27T01:31:48;12.45;;;4.65;;
20794;SDS011;28087;-33.874;151.240;2022-09-27T01:34:26;11.65;;;4.60;;
20794;SDS011;28087;-33.874;151.240;2022-09-27T01:37:06;7.90;;;4.10;;
20794;SDS011;28087;-33.874;151.240;2022-09-27T01:39:44;10.65;;;3.80;;
20794;SDS011;28087;-33.874;151.240;2022-09-27T01:42:30;6.78;;;3.60;;
20794;SDS011;28087;-33.874;151.240;2022-09-27T01:45:08;8.82;;;4.03;;
20794;SDS011;28087;-33.874;151.240;2022-09-27T01:47:55;7.88;;;3.65;;
20794;SDS011;28087;-33.874;151.240;2022-09-27T01:50:52;7.35;;;3.20;;
20794;SDS011;28087;-33.874;151.240;2022-09-27T01:53:29;10.35;;;3.38;;
20794;SDS011;28087;-33.874;151.240;2022-09-27T01:56:29;5.65;;;2.97;;
20794;SDS011;28087;-33.874;151.240;2022-09-27T01:59:13;8.18;;;3.00;;
20794;SDS011;28087;-33.874;151.240;2022-09-27T02:02:02;6.63;;;3.00;;
20794;SDS011;28087;-33.874;151.240;2022-09-27T02:05:08;8.35;;;3.13;;
20794;SDS011;28087;-33.874;151.240;2022-09-27T02:07:52;6.20;;;3.00;;
20794;SDS011;28087;-33.874;151.240;2022-09-27T02:10:33;5.30;;;2.85;;
20794;SDS011;28087;-33.874;151.240;2022-09-27T02:13:18;7.60;;;2.97;;
20794;SDS011;28087;-33.874;151.240;2022-09-27T02:16:19;6.55;;;3.60;;
20794;SDS011;28087;-33.874;151.240;2022-09-27T02:19:01;7.55;;;3.50;;
20794;SDS011;28087;-33.874;151.240;2022-09-27T02:21:43;6.97;;;3.80;;
20794;SDS011;28087;-33.874;151.240;2022-09-27T02:24:31;13.05;;;4.97;;
20794;SDS011;28087;-33.874;151.240;2022-09-27T02:27:15;9.25;;;4.40;;
20794;SDS011;28087;-33.874;151.240;2022-09-27T02:29:59;10.68;;;4.43;;
20794;SDS011;28087;-33.874;151.240;2022-09-27T02:32:37;8.23;;;4.25;;
20794;SDS011;28087;-33.874;151.240;2022-09-27T02:35:15;8.45;;;4.20;;
20794;SDS011;28087;-33.874;151.240;2022-09-27T02:37:55;8.73;;;4.72;;
20794;SDS011;28087;-33.874;151.240;2022-09-27T02:40:30;9.63;;;4.60;;
20794;SDS011;28087;-33.874;151.240;2022-09-27T02:43:05;10.45;;;4.60;;
20794;SDS011;28087;-33.874;151.240;2022-09-27T02:45:41;9.95;;;4.75;;
20794;SDS011;28087;-33.874;151.240;2022-09-27T02:48:18;10.85;;;4.20;;
20794;SDS011;28087;-33.874;151.240;2022-09-27T02:51:05;9.88;;;4.25;;
20794;SDS011;28087;-33.874;151.240;2022-09-27T02:53:48;10.45;;;4.78;;
20794;SDS011;28087;-33.874;151.240;2022-09-27T02:56:46;8.65;;;4.70;;
20794;SDS011;28087;-33.874;151.240;2022-09-27T02:59:52;9.82;;;5.90;;
20794;SDS011;28087;-33.874;151.240;2022-09-27T03:02:52;7.38;;;4.90;;
20794;SDS011;28087;-33.874;151.240;2022-09-27T03:05:39;9.48;;;5.07;;
20794;SDS011;28087;-33.874;151.240;2022-09-27T03:08:17;7.75;;;4.63;;
20794;SDS011;28087;-33.874;151.240;2022-09-27T03:10:55;7.03;;;4.30;;
20794;SDS011;28087;-33.874;151.240;2022-09-27T03:13:29;11.57;;;4.40;;
20794;SDS011;28087;-33.874;151.240;2022-09-27T03:16:27;7.43;;;4.43;;
20794;SDS011;28087;-33.874;151.240;2022-09-27T03:19:19;6.78;;;4.00;;
20794;SDS011;28087;-33.874;151.240;2022-09-27T03:22:12;6.97;;;3.55;;
20794;SDS011;28087;-33.874;151.240;2022-09-27T03:24:48;11.48;;;4.00;;
20794;SDS011;28087;-33.874;151.240;2022-09-27T03:27:29;7.72;;;3.53;;
20794;SDS011;28087;-33.874;151.240;2022-09-27T03:30:04;6.90;;;3.65;;
20794;SDS011;28087;-33.874;151.240;2022-09-27T03:32:41;7.75;;;3.80;;
20794;SDS011;28087;-33.874;151.240;2022-09-27T03:35:38;6.55;;;3.83;;
20794;SDS011;28087;-33.874;151.240;2022-09-27T03:38:16;7.28;;;3.42;;
20794;SDS011;28087;-33.874;151.240;2022-09-27T03:40:51;5.97;;;3.38;;
20794;SDS011;28087;-33.874;151.240;2022-09-27T03:43:28;5.93;;;3.63;;
20794;SDS011;28087;-33.874;151.240;2022-09-27T03:46:04;6.82;;;3.40;;
20794;SDS011;28087;-33.874;151.240;2022-09-27T03:48:40;7.53;;;3.53;;
20794;SDS011;28087;-33.874;151.240;2022-09-27T03:51:18;7.18;;;3.40;;
20794;SDS011;28087;-33.874;151.240;2022-09-27T03:53:56;7.25;;;3.53;;
20794;SDS011;28087;-33.874;151.240;2022-09-27T03:56:32;9.15;;;3.35;;
20794;SDS011;28087;-33.874;151.240;2022-09-27T03:59:10;5.95;;;3.33;;
20794;SDS011;28087;-33.874;151.240;2022-09-27T04:02:06;5.93;;;3.33;;
20794;SDS011;28087;-33.874;151.240;2022-09-27T04:05:19;6.25;;;3.30;;
20794;SDS011;28087;-33.874;151.240;2022-09-27T04:08:09;4.80;;;2.80;;
20794;SDS011;28087;-33.874;151.240;2022-09-27T04:10:43;6.70;;;3.30;;
20794;SDS011;28087;-33.874;151.240;2022-09-27T04:13:37;8.00;;;2.88;;
20794;SDS011;28087;-33.874;151.240;2022-09-27T04:16:15;5.43;;;2.97;;
20794;SDS011;28087;-33.874;151.240;2022-09-27T04:19:22;7.75;;;3.08;;
20794;SDS011;28087;-33.874;151.240;2022-09-27T04:22:09;7.10;;;3.13;;
20794;SDS011;28087;-33.874;151.240;2022-09-27T04:24:46;5.85;;;3.40;;
20794;SDS011;28087;-33.874;151.240;2022-09-27T04:27:28;9.70;;;3.22;;
20794;SDS011;28087;-33.874;151.240;2022-09-27T04:30:06;5.22;;;3.20;;
20794;SDS011;28087;-33.874;151.240;2022-09-27T04:33:16;4.82;;;2.85;;
20794;SDS011;28087;-33.874;151.240;2022-09-27T04:36:11;5.82;;;2.78;;
20794;SDS011;28087;-33.874;151.240;2022-09-27T04:39:26;6.57;;;3.13;;
20794;SDS011;28087;-33.874;151.240;2022-09-27T04:42:01;5.40;;;3.20;;
20794;SDS011;28087;-33.874;151.240;2022-09-27T04:44:37;5.53;;;2.80;;
20794;SDS011;28087;-33.874;151.240;2022-09-27T04:47:12;6.38;;;3.15;;
20794;SDS011;28087;-33.874;151.240;2022-09-27T04:49:52;6.07;;;2.75;;
20794;SDS011;28087;-33.874;151.240;2022-09-27T04:52:29;4.97;;;2.58;;
20794;SDS011;28087;-33.874;151.240;2022-09-27T04:55:05;8.65;;;2.95;;
20794;SDS011;28087;-33.874;151.240;2022-09-27T04:57:41;4.45;;;2.63;;
20794;SDS011;28087;-33.874;151.240;2022-09-27T05:00:16;4.55;;;2.55;;
20794;SDS011;28087;-33.874;151.240;2022-09-27T05:02:58;4.40;;;2.30;;
20794;SDS011;28087;-33.874;151.240;2022-09-27T05:05:45;5.70;;;2.67;;
20794;SDS011;28087;-33.874;151.240;2022-09-27T05:08:20;6.97;;;3.00;;
20794;SDS011;28087;-33.874;151.240;2022-09-27T05:11:29;6.15;;;2.90;;
20794;SDS011;28087;-33.874;151.240;2022-09-27T05:14:16;6.40;;;2.80;;
20794;SDS011;28087;-33.874;151.240;2022-09-27T05:17:08;6.15;;;2.70;;
20794;SDS011;28087;-33.874;151.240;2022-09-27T05:20:18;6.22;;;2.55;;
20794;SDS011;28087;-33.874;151.240;2022-09-27T05:22:57;6.60;;;2.63;;
20794;SDS011;28087;-33.874;151.240;2022-09-27T05:25:32;7.57;;;2.75;;
20794;SDS011;28087;-33.874;151.240;2022-09-27T05:28:08;4.32;;;2.63;;
20794;SDS011;28087;-33.874;151.240;2022-09-27T05:30:44;7.55;;;2.78;;
20794;SDS011;28087;-33.874;151.240;2022-09-27T05:33:21;6.05;;;2.85;;
20794;SDS011;28087;-33.874;151.240;2022-09-27T05:36:35;7.38;;;3.17;;
20794;SDS011;28087;-33.874;151.240;2022-09-27T05:39:13;6.18;;;2.75;;
20794;SDS011;28087;-33.874;151.240;2022-09-27T05:41:50;9.23;;;2.83;;
20794;SDS011;28087;-33.874;151.240;2022-09-27T05:44:25;6.43;;;2.55;;
20794;SDS011;28087;-33.874;151.240;2022-09-27T05:47:01;5.57;;;2.60;;
20794;SDS011;28087;-33.874;151.240;2022-09-27T05:49:36;8.60;;;2.83;;
20794;SDS011;28087;-33.874;151.240;2022-09-27T05:52:12;6.28;;;2.78;;
20794;SDS011;28087;-33.874;151.240;2022-09-27T05:54:53;6.78;;;2.88;;
20794;SDS011;28087;-33.874;151.240;2022-09-27T05:57:27;7.20;;;2.92;;
20794;SDS011;28087;-33.874;151.240;2022-09-27T06:00:06;6.38;;;3.00;;
20794;SDS011;28087;-33.874;151.240;2022-09-27T06:02:50;6.28;;;2.78;;
20794;SDS011;28087;-33.874;151.240;2022-09-27T06:05:53;7.07;;;2.85;;
20794;SDS011;28087;-33.874;151.240;2022-09-27T06:08:36;4.60;;;2.50;;
20794;SDS011;28087;-33.874;151.240;2022-09-27T06:11:18;6.22;;;2.30;;
20794;SDS011;28087;-33.874;151.240;2022-09-27T06:13:53;5.65;;;2.45;;
20794;SDS011;28087;-33.874;151.240;2022-09-27T06:16:35;5.05;;;2.33;;
20794;SDS011;28087;-33.874;151.240;2022-09-27T06:19:10;6.80;;;2.45;;
20794;SDS011;28087;-33.874;151.240;2022-09-27T06:21:45;5.18;;;2.13;;
20794;SDS011;28087;-33.874;151.240;2022-09-27T06:24:23;8.20;;;2.25;;
20794;SDS011;28087;-33.874;151.240;2022-09-27T06:27:08;5.05;;;2.00;;
20794;SDS011;28087;-33.874;151.240;2022-09-27T06:29:56;9.63;;;2.33;;
20794;SDS011;28087;-33.874;151.240;2022-09-27T06:32:57;6.57;;;2.10;;
20794;SDS011;28087;-33.874;151.240;2022-09-27T06:35:43;8.52;;;2.20;;
20794;SDS011;28087;-33.874;151.240;2022-09-27T06:38:21;6.03;;;2.13;;
20794;SDS011;28087;-33.874;151.240;2022-09-27T06:41:08;6.10;;;2.00;;
20794;SDS011;28087;-33.874;151.240;2022-09-27T06:44:02;5.75;;;2.00;;
20794;SDS011;28087;-33.874;151.240;2022-09-27T06:46:55;7.93;;;2.03;;
20794;SDS011;28087;-33.874;151.240;2022-09-27T06:49:47;7.45;;;2.00;;
20794;SDS011;28087;-33.874;151.240;2022-09-27T06:52:23;9.60;;;2.30;;
20794;SDS011;28087;-33.874;151.240;2022-09-27T06:55:00;5.35;;;1.80;;
20794;SDS011;28087;-33.874;151.240;2022-09-27T06:57:36;6.88;;;2.00;;
20794;SDS011;28087;-33.874;151.240;2022-09-27T07:00:31;5.50;;;1.80;;
20794;SDS011;28087;-33.874;151.240;2022-09-27T07:03:33;4.22;;;1.77;;
20794;SDS011;28087;-33.874;151.240;2022-09-27T07:06:34;7.00;;;2.20;;
20794;SDS011;28087;-33.874;151.240;2022-09-27T07:09:25;3.92;;;1.70;;
20794;SDS011;28087;-33.874;151.240;2022-09-27T07:12:01;4.75;;;1.63;;
20794;SDS011;28087;-33.874;151.240;2022-09-27T07:14:54;8.48;;;2.05;;
20794;SDS011;28087;-33.874;151.240;2022-09-27T07:17:32;5.32;;;1.77;;
20794;SDS011;28087;-33.874;151.240;2022-09-27T07:20:08;9.00;;;2.00;;
20794;SDS011;28087;-33.874;151.240;2022-09-27T07:22:43;9.38;;;1.92;;
20794;SDS011;28087;-33.874;151.240;2022-09-27T07:25:19;7.95;;;1.70;;
20794;SDS011;28087;-33.874;151.240;2022-09-27T07:27:53;7.47;;;1.92;;
20794;SDS011;28087;-33.874;151.240;2022-09-27T07:30:28;5.30;;;2.17;;
20794;SDS011;28087;-33.874;151.240;2022-09-27T07:33:05;8.10;;;2.00;;
20794;SDS011;28087;-33.874;151.240;2022-09-27T07:35:39;8.00;;;2.03;;
20794;SDS011;28087;-33.874;151.240;2022-09-27T07:38:14;6.72;;;2.08;;
20794;SDS011;28087;-33.874;151.240;2022-09-27T07:40:51;10.65;;;2.20;;
20794;SDS011;28087;-33.874;151.240;2022-09-27T07:43:25;6.55;;;2.20;;
20794;SDS011;28087;-33.874;151.240;2022-09-27T07:46:00;10.75;;;2.25;;
20794;SDS011;28087;-33.874;151.240;2022-09-27T07:48:49;5.72;;;2.53;;
20794;SDS011;28087;-33.874;151.240;2022-09-27T07:51:42;5.88;;;2.00;;
20794;SDS011;28087;-33.874;151.240;2022-09-27T07:54:39;5.43;;;2.05;;
20794;SDS011;28087;-33.874;151.240;2022-09-27T07:57:31;4.35;;;1.60;;
20794;SDS011;28087;-33.874;151.240;2022-09-27T08:00:06;8.18;;;2.08;;
20794;SDS011;28087;-33.874;151.240;2022-09-27T08:02:43;6.45;;;1.90;;
20794;SDS011;28087;-33.874;151.240;2022-09-27T08:05:19;6.63;;;2.03;;
20794;SDS011;28087;-33.874;151.240;2022-09-27T08:07:54;5.55;;;1.90;;
20794;SDS011;28087;-33.874;151.240;2022-09-27T08:10:32;7.07;;;1.90;;
20794;SDS011;28087;-33.874;151.240;2022-09-27T08:13:06;9.95;;;2.17;;
20794;SDS011;28087;-33.874;151.240;2022-09-27T08:15:42;7.72;;;2.10;;
20794;SDS011;28087;-33.874;151.240;2022-09-27T08:18:16;8.35;;;1.88;;
20794;SDS011;28087;-33.874;151.240;2022-09-27T08:20:57;7.40;;;1.90;;
20794;SDS011;28087;-33.874;151.240;2022-09-27T08:23:54;7.28;;;2.28;;
20794;SDS011;28087;-33.874;151.240;2022-09-27T08:26:52;7.13;;;2.00;;
20794;SDS011;28087;-33.874;151.240;2022-09-27T08:29:42;9.50;;;2.28;;
20794;SDS011;28087;-33.874;151.240;2022-09-27T08:32:18;7.85;;;2.22;;
20794;SDS011;28087;-33.874;151.240;2022-09-27T08:34:54;9.05;;;2.00;;
20794;SDS011;28087;-33.874;151.240;2022-09-27T08:37:32;11.88;;;2.45;;
20794;SDS011;28087;-33.874;151.240;2022-09-27T08:40:09;7.90;;;2.45;;
20794;SDS011;28087;-33.874;151.240;2022-09-27T08:42:46;10.18;;;2.30;;
20794;SDS011;28087;-33.874;151.240;2022-09-27T08:45:23;6.55;;;2.58;;
20794;SDS011;28087;-33.874;151.240;2022-09-27T08:48:03;7.63;;;2.67;;
20794;SDS011;28087;-33.874;151.240;2022-09-27T08:50:40;7.90;;;2.50;;
20794;SDS011;28087;-33.874;151.240;2022-09-27T08:53:19;7.47;;;2.10;;
20794;SDS011;28087;-33.874;151.240;2022-09-27T08:55:55;7.30;;;2.30;;
20794;SDS011;28087;-33.874;151.240;2022-09-27T08:58:39;7.38;;;2.42;;
20794;SDS011;28087;-33.874;151.240;2022-09-27T09:01:22;7.93;;;2.03;;
20794;SDS011;28087;-33.874;151.240;2022-09-27T09:04:03;6.82;;;2.20;;
20794;SDS011;28087;-33.874;151.240;2022-09-27T09:06:39;10.02;;;2.13;;
20794;SDS011;28087;-33.874;151.240;2022-09-27T09:09:25;7.35;;;2.00;;
20794;SDS011;28087;-33.874;151.240;2022-09-27T09:12:19;7.65;;;1.70;;
20794;SDS011;28087;-33.874;151.240;2022-09-27T09:15:31;6.38;;;1.98;;
20794;SDS011;28087;-33.874;151.240;2022-09-27T09:18:36;6.43;;;2.22;;
20794;SDS011;28087;-33.874;151.240;2022-09-27T09:21:44;7.28;;;1.70;;
20794;SDS011;28087;-33.874;151.240;2022-09-27T09:24:32;5.10;;;1.80;;
20794;SDS011;28087;-33.874;151.240;2022-09-27T09:27:24;6.40;;;2.00;;
20794;SDS011;28087;-33.874;151.240;2022-09-27T09:30:12;6.68;;;1.80;;
20794;SDS011;28087;-33.874;151.240;2022-09-27T09:33:06;8.98;;;1.90;;
20794;SDS011;28087;-33.874;151.240;2022-09-27T09:35:56;7.30;;;2.10;;
20794;SDS011;28087;-33.874;151.240;2022-09-27T09:38:38;8.70;;;2.67;;
20794;SDS011;28087;-33.874;151.240;2022-09-27T09:41:19;7.03;;;2.22;;
20794;SDS011;28087;-33.874;151.240;2022-09-27T09:44:01;9.48;;;2.05;;
20794;SDS011;28087;-33.874;151.240;2022-09-27T09:46:41;8.85;;;2.40;;
20794;SDS011;28087;-33.874;151.240;2022-09-27T09:49:20;8.98;;;2.45;;
20794;SDS011;28087;-33.874;151.240;2022-09-27T09:52:02;6.75;;;2.17;;
20794;SDS011;28087;-33.874;151.240;2022-09-27T09:54:45;8.57;;;2.50;;
20794;SDS011;28087;-33.874;151.240;2022-09-27T09:57:29;9.82;;;2.10;;
20794;SDS011;28087;-33.874;151.240;2022-09-27T10:00:16;9.88;;;2.40;;
20794;SDS011;28087;-33.874;151.240;2022-09-27T10:02:53;9.70;;;2.25;;
20794;SDS011;28087;-33.874;151.240;2022-09-27T10:05:31;11.15;;;2.35;;
20794;SDS011;28087;-33.874;151.240;2022-09-27T10:08:11;7.90;;;2.30;;
20794;SDS011;28087;-33.874;151.240;2022-09-27T10:11:06;7.72;;;2.22;;
20794;SDS011;28087;-33.874;151.240;2022-09-27T10:13:59;10.93;;;2.45;;
20794;SDS011;28087;-33.874;151.240;2022-09-27T10:16:35;7.60;;;2.38;;
20794;SDS011;28087;-33.874;151.240;2022-09-27T10:19:14;8.40;;;2.90;;
20794;SDS011;28087;-33.874;151.240;2022-09-27T10:21:58;6.32;;;2.60;;
20794;SDS011;28087;-33.874;151.240;2022-09-27T10:24:52;9.95;;;2.70;;
20794;SDS011;28087;-33.874;151.240;2022-09-27T10:27:57;9.98;;;2.70;;
20794;SDS011;28087;-33.874;151.240;2022-09-27T10:30:38;8.80;;;2.70;;
20794;SDS011;28087;-33.874;151.240;2022-09-27T10:33:14;7.03;;;2.78;;
20794;SDS011;28087;-33.874;151.240;2022-09-27T10:36:01;8.40;;;2.70;;
20794;SDS011;28087;-33.874;151.240;2022-09-27T10:38:55;11.75;;;2.80;;
20794;SDS011;28087;-33.874;151.240;2022-09-27T10:41:42;9.43;;;3.15;;
20794;SDS011;28087;-33.874;151.240;2022-09-27T10:44:33;10.90;;;3.35;;
20794;SDS011;28087;-33.874;151.240;2022-09-27T10:47:24;9.98;;;3.10;;
20794;SDS011;28087;-33.874;151.240;2022-09-27T10:50:23;7.88;;;3.28;;
20794;SDS011;28087;-33.874;151.240;2022-09-27T10:53:24;10.73;;;3.70;;
20794;SDS011;28087;-33.874;151.240;2022-09-27T10:56:08;9.68;;;3.60;;
20794;SDS011;28087;-33.874;151.240;2022-09-27T10:59:01;11.02;;;3.88;;
20794;SDS011;28087;-33.874;151.240;2022-09-27T11:01:38;12.85;;;3.40;;
20794;SDS011;28087;-33.874;151.240;2022-09-27T11:04:31;9.82;;;3.65;;
20794;SDS011;28087;-33.874;151.240;2022-09-27T11:07:10;12.23;;;3.83;;
20794;SDS011;28087;-33.874;151.240;2022-09-27T11:10:19;10.23;;;4.03;;
20794;SDS011;28087;-33.874;151.240;2022-09-27T11:13:08;11.73;;;3.67;;
20794;SDS011;28087;-33.874;151.240;2022-09-27T11:15:52;10.90;;;3.75;;
20794;SDS011;28087;-33.874;151.240;2022-09-27T11:18:43;10.35;;;3.70;;
20794;SDS011;28087;-33.874;151.240;2022-09-27T11:21:46;12.73;;;3.92;;
20794;SDS011;28087;-33.874;151.240;2022-09-27T11:24:35;12.55;;;4.00;;
20794;SDS011;28087;-33.874;151.240;2022-09-27T11:27:26;8.13;;;3.88;;
20794;SDS011;28087;-33.874;151.240;2022-09-27T11:30:14;10.55;;;3.88;;
20794;SDS011;28087;-33.874;151.240;2022-09-27T11:33:31;13.65;;;4.10;;
20794;SDS011;28087;-33.874;151.240;2022-09-27T11:36:36;12.13;;;4.05;;
20794;SDS011;28087;-33.874;151.240;2022-09-27T11:39:49;12.43;;;3.88;;
20794;SDS011;28087;-33.874;151.240;2022-09-27T11:45:51;14.18;;;4.03;;
20794;SDS011;28087;-33.874;151.240;2022-09-27T11:48:52;10.60;;;3.80;;
20794;SDS011;28087;-33.874;151.240;2022-09-27T11:52:07;12.20;;;4.00;;
20794;SDS011;28087;-33.874;151.240;2022-09-27T11:55:10;10.18;;;4.20;;
20794;SDS011;28087;-33.874;151.240;2022-09-27T11:57:54;11.10;;;4.40;;
20794;SDS011;28087;-33.874;151.240;2022-09-27T12:00:40;12.15;;;4.22;;
20794;SDS011;28087;-33.874;151.240;2022-09-27T12:03:31;17.17;;;4.57;;
20794;SDS011;28087;-33.874;151.240;2022-09-27T12:06:32;12.73;;;4.10;;
20794;SDS011;28087;-33.874;151.240;2022-09-27T12:09:13;11.00;;;4.10;;
20794;SDS011;28087;-33.874;151.240;2022-09-27T12:11:59;11.20;;;4.32;;
20794;SDS011;28087;-33.874;151.240;2022-09-27T12:14:38;10.82;;;4.35;;
20794;SDS011;28087;-33.874;151.240;2022-09-27T12:17:17;10.65;;;4.00;;
20794;SDS011;28087;-33.874;151.240;2022-09-27T12:19:57;10.98;;;4.50;;
20794;SDS011;28087;-33.874;151.240;2022-09-27T12:22:47;12.32;;;4.20;;
20794;SDS011;28087;-33.874;151.240;2022-09-27T12:26:02;8.82;;;3.90;;
20794;SDS011;28087;-33.874;151.240;2022-09-27T12:28:45;12.52;;;4.05;;
20794;SDS011;28087;-33.874;151.240;2022-09-27T12:31:26;11.55;;;4.00;;
20794;SDS011;28087;-33.874;151.240;2022-09-27T12:34:07;14.65;;;4.25;;
20794;SDS011;28087;-33.874;151.240;2022-09-27T12:36:49;10.35;;;3.60;;
20794;SDS011;28087;-33.874;151.240;2022-09-27T12:39:40;10.27;;;3.55;;
20794;SDS011;28087;-33.874;151.240;2022-09-27T12:42:25;10.57;;;3.60;;
20794;SDS011;28087;-33.874;151.240;2022-09-27T12:45:14;10.10;;;3.92;;
20794;SDS011;28087;-33.874;151.240;2022-09-27T12:47:55;9.40;;;3.58;;
20794;SDS011;28087;-33.874;151.240;2022-09-27T12:50:39;9.77;;;3.40;;
20794;SDS011;28087;-33.874;151.240;2022-09-27T12:53:19;8.93;;;3.55;;
20794;SDS011;28087;-33.874;151.240;2022-09-27T12:56:13;9.05;;;3.22;;
20794;SDS011;28087;-33.874;151.240;2022-09-27T12:59:22;10.32;;;3.33;;
20794;SDS011;28087;-33.874;151.240;2022-09-27T13:02:28;9.93;;;3.65;;
20794;SDS011;28087;-33.874;151.240;2022-09-27T13:06:01;10.13;;;3.33;;
20794;SDS011;28087;-33.874;151.240;2022-09-27T13:08:58;11.73;;;3.63;;
20794;SDS011;28087;-33.874;151.240;2022-09-27T13:11:58;12.40;;;3.72;;
20794;SDS011;28087;-33.874;151.240;2022-09-27T13:14:43;12.80;;;3.95;;
20794;SDS011;28087;-33.874;151.240;2022-09-27T13:17:36;12.10;;;3.50;;
20794;SDS011;28087;-33.874;151.240;2022-09-27T13:20:37;10.93;;;3.50;;
20794;SDS011;28087;-33.874;151.240;2022-09-27T13:26:46;12.23;;;4.05;;
20794;SDS011;28087;-33.874;151.240;2022-09-27T13:29:28;12.52;;;3.67;;
20794;SDS011;28087;-33.874;151.240;2022-09-27T13:32:19;11.80;;;3.50;;
20794;SDS011;28087;-33.874;151.240;2022-09-27T13:35:17;11.68;;;3.40;;
20794;SDS011;28087;-33.874;151.240;2022-09-27T13:38:17;13.82;;;3.90;;
20794;SDS011;28087;-33.874;151.240;2022-09-27T13:41:12;12.13;;;4.07;;
20794;SDS011;28087;-33.874;151.240;2022-09-27T13:43:58;11.57;;;4.00;;
20794;SDS011;28087;-33.874;151.240;2022-09-27T13:46:45;13.60;;;3.85;;
20794;SDS011;28087;-33.874;151.240;2022-09-27T13:49:25;12.85;;;4.00;;
20794;SDS011;28087;-33.874;151.240;2022-09-27T13:52:16;12.95;;;4.22;;
20794;SDS011;28087;-33.874;151.240;2022-09-27T13:55:35;9.38;;;4.65;;
20794;SDS011;28087;-33.874;151.240;2022-09-27T14:01:44;11.57;;;4.93;;
20794;SDS011;28087;-33.874;151.240;2022-09-27T14:04:30;13.80;;;4.80;;
20794;SDS011;28087;-33.874;151.240;2022-09-27T14:07:17;12.13;;;4.88;;
20794;SDS011;28087;-33.874;151.240;2022-09-27T14:09:56;10.43;;;4.18;;
20794;SDS011;28087;-33.874;151.240;2022-09-27T14:12:37;10.18;;;4.60;;
20794;SDS011;28087;-33.874;151.240;2022-09-27T14:15:16;10.05;;;4.47;;
20794;SDS011;28087;-33.874;151.240;2022-09-27T14:17:53;12.55;;;4.20;;
20794;SDS011;28087;-33.874;151.240;2022-09-27T14:20:34;11.90;;;4.38;;
20794;SDS011;28087;-33.874;151.240;2022-09-27T14:23:33;7.47;;;4.18;;
20794;SDS011;28087;-33.874;151.240;2022-09-27T14:26:17;7.72;;;3.88;;
20794;SDS011;28087;-33.874;151.240;2022-09-27T14:28:59;7.65;;;4.10;;
20794;SDS011;28087;-33.874;151.240;2022-09-27T14:31:35;8.40;;;3.90;;
20794;SDS011;28087;-33.874;151.240;2022-09-27T14:34:22;8.95;;;4.20;;
20794;SDS011;28087;-33.874;151.240;2022-09-27T14:37:02;9.52;;;3.90;;
20794;SDS011;28087;-33.874;151.240;2022-09-27T14:40:16;12.05;;;4.30;;
20794;SDS011;28087;-33.874;151.240;2022-09-27T14:42:54;12.43;;;4.18;;
20794;SDS011;28087;-33.874;151.240;2022-09-27T14:45:34;10.20;;;4.32;;
20794;SDS011;28087;-33.874;151.240;2022-09-27T14:48:17;10.07;;;4.40;;
20794;SDS011;28087;-33.874;151.240;2022-09-27T14:50:54;10.40;;;4.47;;
20794;SDS011;28087;-33.874;151.240;2022-09-27T14:53:35;14.77;;;4.72;;
20794;SDS011;28087;-33.874;151.240;2022-09-27T14:56:16;9.10;;;4.55;;
20794;SDS011;28087;-33.874;151.240;2022-09-27T14:59:01;12.48;;;4.53;;
20794;SDS011;28087;-33.874;151.240;2022-09-27T15:01:41;11.48;;;4.68;;
20794;SDS011;28087;-33.874;151.240;2022-09-27T15:04:22;12.35;;;4.57;;
20794;SDS011;28087;-33.874;151.240;2022-09-27T15:06:59;12.82;;;4.80;;
20794;SDS011;28087;-33.874;151.240;2022-09-27T15:09:36;13.15;;;5.00;;
20794;SDS011;28087;-33.874;151.240;2022-09-27T15:12:18;11.10;;;4.60;;
20794;SDS011;28087;-33.874;151.240;2022-09-27T15:14:57;12.93;;;4.68;;
20794;SDS011;28087;-33.874;151.240;2022-09-27T15:17:40;12.02;;;4.78;;
20794;SDS011;28087;-33.874;151.240;2022-09-27T15:20:20;12.10;;;5.22;;
20794;SDS011;28087;-33.874;151.240;2022-09-27T15:23:04;11.95;;;5.30;;
20794;SDS011;28087;-33.874;151.240;2022-09-27T15:25:41;12.63;;;5.55;;
20794;SDS011;28087;-33.874;151.240;2022-09-27T15:28:33;12.18;;;5.57;;
20794;SDS011;28087;-33.874;151.240;2022-09-27T15:31:10;16.17;;;5.32;;
20794;SDS011;28087;-33.874;151.240;2022-09-27T15:33:52;14.20;;;6.15;;
20794;SDS011;28087;-33.874;151.240;2022-09-27T15:39:28;14.48;;;5.68;;
20794;SDS011;28087;-33.874;151.240;2022-09-27T15:42:06;12.18;;;5.90;;
20794;SDS011;28087;-33.874;151.240;2022-09-27T15:44:46;15.25;;;5.93;;
20794;SDS011;28087;-33.874;151.240;2022-09-27T15:47:39;13.70;;;5.82;;
20794;SDS011;28087;-33.874;151.240;2022-09-27T15:50:33;12.75;;;5.78;;
20794;SDS011;28087;-33.874;151.240;2022-09-27T15:53:12;14.18;;;5.63;;
20794;SDS011;28087;-33.874;151.240;2022-09-27T15:56:16;14.65;;;5.90;;
20794;SDS011;28087;-33.874;151.240;2022-09-27T15:58:51;14.50;;;5.10;;
20794;SDS011;28087;-33.874;151.240;2022-09-27T16:01:32;8.75;;;4.90;;